sensor_id;sensor_type;location;lat;lon;timestamp;pressure;altitude;pressure_sealevel;temperature;humidity
20987;BME280;10652;50.306;8.570;2023-05-11T00:02:58;97733.53;;;10.50;100.00
20987;BME280;10652;50.306;8.570;2023-05-11T00:07:01;97729.47;;;10.44;100.00
20987;BME280;10652;50.306;8.570;2023-05-11T00:11:07;97733.63;;;10.31;100.00
20987;BME280;10652;50.306;8.570;2023-05-11T00:15:09;97737.69;;;10.21;100.00
20987;BME280;10652;50.306;8.570;2023-05-11T00:19:11;97734.50;;;9.97;100.00
20987;BME280;10652;50.306;8.570;2023-05-11T00:23:13;97732.72;;;9.81;100.00
20987;BME280;10652;50.306;8.570;2023-05-11T00:27:15;97723.69;;;9.68;100.00
20987;BME280;10652;50.306;8.570;2023-05-11T00:31:17;97728.16;;;9.66;100.00
20987;BME280;10652;50.306;8.570;2023-05-11T00:35:20;97729.16;;;9.63;100.00
20987;BME280;10652;50.306;8.570;2023-05-11T00:39:22;97724.91;;;9.60;100.00
20987;BME280;10652;50.306;8.570;2023-05-11T00:43:24;97714.72;;;9.54;100.00
20987;BME280;10652;50.306;8.570;2023-05-11T00:47:26;97726.06;;;9.55;100.00
20987;BME280;10652;50.306;8.570;2023-05-11T00:51:30;97716.34;;;9.57;100.00
20987;BME280;10652;50.306;8.570;2023-05-11T00:55:33;97712.09;;;9.54;100.00
20987;BME280;10652;50.306;8.570;2023-05-11T00:59:35;97713.03;;;9.53;100.00
20987;BME280;10652;50.306;8.570;2023-05-11T01:03:37;97713.03;;;9.53;100.00
20987;BME280;10652;50.306;8.570;2023-05-11T01:12:07;97720.91;;;9.53;100.00
20987;BME280;10652;50.306;8.570;2023-05-11T01:16:19;97716.56;;;9.52;100.00
20987;BME280;10652;50.306;8.570;2023-05-11T01:20:28;97712.50;;;9.28;100.00
20987;BME280;10652;50.306;8.570;2023-05-11T01:29:00;97711.78;;;9.06;100.00
20987;BME280;10652;50.306;8.570;2023-05-11T01:33:08;97711.66;;;9.09;100.00
20987;BME280;10652;50.306;8.570;2023-05-11T01:37:20;97711.78;;;9.06;100.00
20987;BME280;10652;50.306;8.570;2023-05-11T01:41:26;97715.47;;;9.02;100.00
20987;BME280;10652;50.306;8.570;2023-05-11T01:45:32;97709.53;;;8.98;100.00
20987;BME280;10652;50.306;8.570;2023-05-11T01:49:36;97714.56;;;9.03;100.00
20987;BME280;10652;50.306;8.570;2023-05-11T01:53:41;97717.63;;;9.12;100.00
20987;BME280;10652;50.306;8.570;2023-05-11T01:57:47;97718.31;;;9.16;100.00
20987;BME280;10652;50.306;8.570;2023-05-11T02:01:51;97719.38;;;9.12;100.00
20987;BME280;10652;50.306;8.570;2023-05-11T02:05:55;97717.63;;;9.12;100.00
20987;BME280;10652;50.306;8.570;2023-05-11T02:09:59;97709.66;;;9.14;100.00
20987;BME280;10652;50.306;8.570;2023-05-11T02:14:02;97714.78;;;9.17;100.00
20987;BME280;10652;50.306;8.570;2023-05-11T02:18:07;97721.00;;;9.14;100.00
20987;BME280;10652;50.306;8.570;2023-05-11T02:22:12;97725.53;;;9.11;100.00
20987;BME280;10652;50.306;8.570;2023-05-11T02:26:14;97727.03;;;8.98;100.00
20987;BME280;10652;50.306;8.570;2023-05-11T02:30:17;97731.03;;;8.86;100.00
20987;BME280;10652;50.306;8.570;2023-05-11T02:34:34;97730.06;;;8.89;100.00
20987;BME280;10652;50.306;8.570;2023-05-11T02:38:40;97725.81;;;9.05;100.00
20987;BME280;10652;50.306;8.570;2023-05-11T02:42:48;97728.31;;;9.08;100.00
20987;BME280;10652;50.306;8.570;2023-05-11T02:46:54;97726.25;;;9.14;100.00
20987;BME280;10652;50.306;8.570;2023-05-11T02:50:59;97724.97;;;9.23;100.00
20987;BME280;10652;50.306;8.570;2023-05-11T02:55:09;97722.34;;;9.23;100.00
20987;BME280;10652;50.306;8.570;2023-05-11T02:59:12;97722.28;;;9.25;100.00
20987;BME280;10652;50.306;8.570;2023-05-11T03:03:15;97718.59;;;9.29;100.00
20987;BME280;10652;50.306;8.570;2023-05-11T03:07:17;97714.19;;;9.29;100.00
20987;BME280;10652;50.306;8.570;2023-05-11T03:11:19;97723.56;;;9.35;100.00
20987;BME280;10652;50.306;8.570;2023-05-11T03:15:22;97714.69;;;9.37;100.00
20987;BME280;10652;50.306;8.570;2023-05-11T03:19:27;97714.69;;;9.37;100.00
20987;BME280;10652;50.306;8.570;2023-05-11T03:23:31;97714.19;;;9.29;100.00
20987;BME280;10652;50.306;8.570;2023-05-11T03:27:35;97710.31;;;9.19;100.00
20987;BME280;10652;50.306;8.570;2023-05-11T03:31:40;97716.47;;;9.18;100.00
20987;BME280;10652;50.306;8.570;2023-05-11T03:35:42;97713.78;;;9.20;100.00
20987;BME280;10652;50.306;8.570;2023-05-11T03:39:54;97716.19;;;9.05;100.00
20987;BME280;10652;50.306;8.570;2023-05-11T03:43:59;97709.03;;;9.09;100.00
20987;BME280;10652;50.306;8.570;2023-05-11T03:48:04;97710.56;;;9.13;100.00
20987;BME280;10652;50.306;8.570;2023-05-11T03:52:07;97713.06;;;9.16;100.00
20987;BME280;10652;50.306;8.570;2023-05-11T03:56:10;97717.19;;;9.22;100.00
20987;BME280;10652;50.306;8.570;2023-05-11T04:00:12;97716.19;;;9.24;100.00
20987;BME280;10652;50.306;8.570;2023-05-11T04:04:19;97715.16;;;9.27;100.00
20987;BME280;10652;50.306;8.570;2023-05-11T04:08:21;97720.72;;;9.39;100.00
20987;BME280;10652;50.306;8.570;2023-05-11T04:12:23;97720.72;;;9.39;100.00
20987;BME280;10652;50.306;8.570;2023-05-11T04:16:25;97713.06;;;9.35;100.00
20987;BME280;10652;50.306;8.570;2023-05-11T04:20:28;97718.66;;;9.27;100.00
20987;BME280;10652;50.306;8.570;2023-05-11T04:24:32;97710.50;;;9.33;100.00
20987;BME280;10652;50.306;8.570;2023-05-11T04:28:34;97720.72;;;9.39;100.00
20987;BME280;10652;50.306;8.570;2023-05-11T04:32:36;97727.72;;;9.39;100.00
20987;BME280;10652;50.306;8.570;2023-05-11T04:36:38;97728.13;;;9.48;100.00
20987;BME280;10652;50.306;8.570;2023-05-11T04:40:40;97721.38;;;9.62;100.00
20987;BME280;10652;50.306;8.570;2023-05-11T04:44:42;97720.81;;;9.74;100.00
20987;BME280;10652;50.306;8.570;2023-05-11T04:48:45;97732.16;;;9.74;100.00
20987;BME280;10652;50.306;8.570;2023-05-11T04:52:48;97727.75;;;9.75;100.00
20987;BME280;10652;50.306;8.570;2023-05-11T04:56:50;97730.09;;;9.81;100.00
20987;BME280;10652;50.306;8.570;2023-05-11T05:00:53;97727.94;;;9.89;100.00
20987;BME280;10652;50.306;8.570;2023-05-11T05:04:55;97732.63;;;9.99;100.00
20987;BME280;10652;50.306;8.570;2023-05-11T05:08:57;97731.19;;;10.11;100.00
20987;BME280;10652;50.306;8.570;2023-05-11T05:12:59;97743.91;;;10.19;100.00
20987;BME280;10652;50.306;8.570;2023-05-11T05:17:02;97739.22;;;10.25;100.00
20987;BME280;10652;50.306;8.570;2023-05-11T05:21:04;97748.16;;;10.38;100.00
20987;BME280;10652;50.306;8.570;2023-05-11T05:25:07;97746.91;;;10.45;100.00
20987;BME280;10652;50.306;8.570;2023-05-11T05:29:09;97746.00;;;10.46;100.00
20987;BME280;10652;50.306;8.570;2023-05-11T05:33:12;97748.06;;;10.57;100.00
20987;BME280;10652;50.306;8.570;2023-05-11T05:37:14;97745.66;;;10.70;100.00
20987;BME280;10652;50.306;8.570;2023-05-11T05:41:17;97753.66;;;10.84;100.00
20987;BME280;10652;50.306;8.570;2023-05-11T05:45:20;97763.25;;;10.85;100.00
20987;BME280;10652;50.306;8.570;2023-05-11T05:49:22;97767.44;;;11.05;100.00
20987;BME280;10652;50.306;8.570;2023-05-11T05:53:24;97760.31;;;11.40;100.00
20987;BME280;10652;50.306;8.570;2023-05-11T05:57:26;97768.03;;;11.43;100.00
20987;BME280;10652;50.306;8.570;2023-05-11T06:01:31;97764.47;;;11.44;100.00
20987;BME280;10652;50.306;8.570;2023-05-11T06:05:33;97763.25;;;11.49;100.00
20987;BME280;10652;50.306;8.570;2023-05-11T06:09:36;97773.28;;;11.58;100.00
20987;BME280;10652;50.306;8.570;2023-05-11T06:13:40;97773.78;;;11.49;100.00
20987;BME280;10652;50.306;8.570;2023-05-11T06:17:42;97777.53;;;11.29;100.00
20987;BME280;10652;50.306;8.570;2023-05-11T06:21:46;97778.63;;;11.25;100.00
20987;BME280;10652;50.306;8.570;2023-05-11T06:25:49;97775.75;;;11.30;100.00
20987;BME280;10652;50.306;8.570;2023-05-11T06:29:52;97781.19;;;11.43;100.00
20987;BME280;10652;50.306;8.570;2023-05-11T06:33:54;97776.34;;;11.51;100.00
20987;BME280;10652;50.306;8.570;2023-05-11T06:38:00;97775.25;;;11.55;100.00
20987;BME280;10652;50.306;8.570;2023-05-11T06:42:03;97772.47;;;11.58;100.00
20987;BME280;10652;50.306;8.570;2023-05-11T06:46:07;97774.72;;;11.64;100.00
20987;BME280;10652;50.306;8.570;2023-05-11T06:50:10;97779.06;;;11.65;100.00
20987;BME280;10652;50.306;8.570;2023-05-11T06:54:13;97775.50;;;11.66;100.00
20987;BME280;10652;50.306;8.570;2023-05-11T06:58:15;97778.22;;;11.64;100.00
20987;BME280;10652;50.306;8.570;2023-05-11T07:02:17;97784.16;;;11.68;100.00
20987;BME280;10652;50.306;8.570;2023-05-11T07:06:19;97781.97;;;11.76;100.00
20987;BME280;10652;50.306;8.570;2023-05-11T07:10:22;97787.03;;;11.79;100.00
20987;BME280;10652;50.306;8.570;2023-05-11T07:14:24;97788.38;;;11.86;100.00
20987;BME280;10652;50.306;8.570;2023-05-11T07:18:26;97787.13;;;11.93;100.00
20987;BME280;10652;50.306;8.570;2023-05-11T07:22:28;97790.94;;;11.88;99.45
20987;BME280;10652;50.306;8.570;2023-05-11T07:26:30;97791.28;;;11.97;100.00
20987;BME280;10652;50.306;8.570;2023-05-11T07:30:32;97790.63;;;12.23;100.00
20987;BME280;10652;50.306;8.570;2023-05-11T07:34:34;97789.84;;;12.37;98.18
20987;BME280;10652;50.306;8.570;2023-05-11T07:38:37;97793.38;;;12.52;96.57
20987;BME280;10652;50.306;8.570;2023-05-11T07:42:39;97791.34;;;12.57;96.46
20987;BME280;10652;50.306;8.570;2023-05-11T07:46:41;97791.44;;;12.69;93.17
20987;BME280;10652;50.306;8.570;2023-05-11T07:50:43;97788.19;;;12.80;92.50
20987;BME280;10652;50.306;8.570;2023-05-11T07:54:45;97792.50;;;12.95;91.68
20987;BME280;10652;50.306;8.570;2023-05-11T07:58:47;97793.94;;;13.15;89.91
20987;BME280;10652;50.306;8.570;2023-05-11T08:02:49;97782.16;;;13.21;89.40
20987;BME280;10652;50.306;8.570;2023-05-11T08:06:52;97793.56;;;13.21;87.02
20987;BME280;10652;50.306;8.570;2023-05-11T08:10:54;97785.91;;;13.45;91.53
20987;BME280;10652;50.306;8.570;2023-05-11T08:14:56;97793.13;;;13.84;87.51
20987;BME280;10652;50.306;8.570;2023-05-11T08:18:58;97791.19;;;13.59;83.27
20987;BME280;10652;50.306;8.570;2023-05-11T08:23:00;97792.50;;;13.38;83.94
20987;BME280;10652;50.306;8.570;2023-05-11T08:27:02;97796.44;;;13.45;83.87
20987;BME280;10652;50.306;8.570;2023-05-11T08:31:04;97798.16;;;13.46;83.60
20987;BME280;10652;50.306;8.570;2023-05-11T08:35:07;97795.25;;;13.65;84.10
20987;BME280;10652;50.306;8.570;2023-05-11T08:39:10;97800.56;;;13.91;83.26
20987;BME280;10652;50.306;8.570;2023-05-11T08:43:15;97792.97;;;13.99;80.39
20987;BME280;10652;50.306;8.570;2023-05-11T08:47:18;97811.31;;;13.88;79.40
20987;BME280;10652;50.306;8.570;2023-05-11T08:51:24;97802.22;;;13.66;80.61
20987;BME280;10652;50.306;8.570;2023-05-11T08:55:27;97796.81;;;13.67;81.38
20987;BME280;10652;50.306;8.570;2023-05-11T08:59:30;97798.09;;;13.62;82.03
20987;BME280;10652;50.306;8.570;2023-05-11T09:03:35;97795.53;;;13.60;82.68
20987;BME280;10652;50.306;8.570;2023-05-11T09:07:39;97797.78;;;13.80;81.58
20987;BME280;10652;50.306;8.570;2023-05-11T09:11:46;97798.09;;;14.02;80.70
20987;BME280;10652;50.306;8.570;2023-05-11T09:15:48;97801.41;;;14.19;77.75
20987;BME280;10652;50.306;8.570;2023-05-11T09:19:58;97806.03;;;14.15;77.17
20987;BME280;10652;50.306;8.570;2023-05-11T09:24:01;97813.72;;;14.06;77.16
20987;BME280;10652;50.306;8.570;2023-05-11T09:28:04;97811.47;;;13.99;77.91
20987;BME280;10652;50.306;8.570;2023-05-11T09:32:06;97803.22;;;14.31;79.56
20987;BME280;10652;50.306;8.570;2023-05-11T09:36:21;97810.88;;;14.62;74.85
20987;BME280;10652;50.306;8.570;2023-05-11T09:40:25;97804.81;;;14.60;75.22
20987;BME280;10652;50.306;8.570;2023-05-11T09:44:34;97803.13;;;14.59;75.61
20987;BME280;10652;50.306;8.570;2023-05-11T09:48:36;97807.19;;;14.77;74.76
20987;BME280;10652;50.306;8.570;2023-05-11T09:52:49;97802.72;;;14.65;74.99
20987;BME280;10652;50.306;8.570;2023-05-11T09:56:54;97800.41;;;14.73;75.25
20987;BME280;10652;50.306;8.570;2023-05-11T10:00:57;97805.16;;;14.81;74.41
20987;BME280;10652;50.306;8.570;2023-05-11T10:05:00;97803.19;;;15.10;74.33
20987;BME280;10652;50.306;8.570;2023-05-11T10:09:10;97803.69;;;15.40;71.99
20987;BME280;10652;50.306;8.570;2023-05-11T10:13:13;97792.25;;;15.52;73.21
20987;BME280;10652;50.306;8.570;2023-05-11T10:17:15;97795.31;;;15.59;69.92
20987;BME280;10652;50.306;8.570;2023-05-11T10:21:18;97791.84;;;15.33;71.72
20987;BME280;10652;50.306;8.570;2023-05-11T10:25:21;97795.97;;;15.37;70.62
20987;BME280;10652;50.306;8.570;2023-05-11T10:29:23;97794.25;;;15.36;70.29
20987;BME280;10652;50.306;8.570;2023-05-11T10:33:26;97788.84;;;15.50;70.70
20987;BME280;10652;50.306;8.570;2023-05-11T10:37:29;97787.19;;;15.86;71.13
20987;BME280;10652;50.306;8.570;2023-05-11T10:41:44;97783.53;;;15.99;67.52
20987;BME280;10652;50.306;8.570;2023-05-11T10:50:31;97780.22;;;16.56;67.24
20987;BME280;10652;50.306;8.570;2023-05-11T10:55:06;97781.84;;;16.81;63.47
20987;BME280;10652;50.306;8.570;2023-05-11T10:59:44;97779.69;;;16.75;63.45
20987;BME280;10652;50.306;8.570;2023-05-11T11:04:12;97767.91;;;17.01;63.81
20987;BME280;10652;50.306;8.570;2023-05-11T11:08:14;97774.06;;;17.24;61.46
20987;BME280;10652;50.306;8.570;2023-05-11T11:12:17;97765.50;;;17.53;61.50
20987;BME280;10652;50.306;8.570;2023-05-11T11:16:19;97770.09;;;17.63;60.88
20987;BME280;10652;50.306;8.570;2023-05-11T11:20:46;97769.13;;;17.75;60.35
20987;BME280;10652;50.306;8.570;2023-05-11T11:24:49;97761.00;;;17.76;60.02
20987;BME280;10652;50.306;8.570;2023-05-11T11:37:08;97758.72;;;17.72;59.41
20987;BME280;10652;50.306;8.570;2023-05-11T11:41:10;97764.28;;;17.69;57.94
20987;BME280;10652;50.306;8.570;2023-05-11T11:45:30;97758.38;;;17.43;58.95
20987;BME280;10652;50.306;8.570;2023-05-11T11:49:33;97753.44;;;17.27;59.68
20987;BME280;10652;50.306;8.570;2023-05-11T11:57:41;97758.00;;;16.92;60.47
20987;BME280;10652;50.306;8.570;2023-05-11T12:01:50;97757.03;;;17.04;60.19
20987;BME280;10652;50.306;8.570;2023-05-11T12:05:55;97747.28;;;17.27;59.98
20987;BME280;10652;50.306;8.570;2023-05-11T12:10:02;97747.03;;;17.41;58.87
20987;BME280;10652;50.306;8.570;2023-05-11T12:14:05;97753.97;;;17.43;58.05
20987;BME280;10652;50.306;8.570;2023-05-11T12:18:22;97752.75;;;17.47;58.54
20987;BME280;10652;50.306;8.570;2023-05-11T12:22:24;97750.31;;;17.33;58.04
20987;BME280;10652;50.306;8.570;2023-05-11T12:26:27;97741.84;;;17.28;58.73
20987;BME280;10652;50.306;8.570;2023-05-11T12:30:33;97746.69;;;17.34;58.41
20987;BME280;10652;50.306;8.570;2023-05-11T12:34:35;97740.06;;;17.51;58.78
20987;BME280;10652;50.306;8.570;2023-05-11T12:38:47;97741.00;;;17.61;57.81
20987;BME280;10652;50.306;8.570;2023-05-11T12:42:51;97738.47;;;17.71;56.95
20987;BME280;10652;50.306;8.570;2023-05-11T12:46:53;97739.69;;;17.67;56.54
20987;BME280;10652;50.306;8.570;2023-05-11T12:50:55;97736.41;;;17.74;57.31
20987;BME280;10652;50.306;8.570;2023-05-11T12:54:58;97730.22;;;17.74;56.61
20987;BME280;10652;50.306;8.570;2023-05-11T12:59:02;97736.03;;;17.68;57.13
20987;BME280;10652;50.306;8.570;2023-05-11T13:03:04;97727.63;;;17.51;58.81
20987;BME280;10652;50.306;8.570;2023-05-11T13:07:06;97732.34;;;17.26;59.78
20987;BME280;10652;50.306;8.570;2023-05-11T13:11:18;97732.94;;;17.07;60.87
20987;BME280;10652;50.306;8.570;2023-05-11T13:15:23;97731.22;;;16.95;60.89
20987;BME280;10652;50.306;8.570;2023-05-11T13:19:27;97740.34;;;16.69;60.95
20987;BME280;10652;50.306;8.570;2023-05-11T13:23:30;97734.53;;;16.63;63.00
20987;BME280;10652;50.306;8.570;2023-05-11T13:27:32;97735.63;;;16.61;63.49
20987;BME280;10652;50.306;8.570;2023-05-11T13:31:41;97731.56;;;16.44;63.60
20987;BME280;10652;50.306;8.570;2023-05-11T13:35:44;97731.53;;;16.33;65.63
20987;BME280;10652;50.306;8.570;2023-05-11T13:39:46;97734.38;;;16.19;67.65
20987;BME280;10652;50.306;8.570;2023-05-11T13:43:48;97730.59;;;16.10;68.98
20987;BME280;10652;50.306;8.570;2023-05-11T13:47:52;97731.88;;;15.94;70.41
20987;BME280;10652;50.306;8.570;2023-05-11T13:51:55;97738.94;;;15.69;71.88
20987;BME280;10652;50.306;8.570;2023-05-11T13:55:58;97733.25;;;15.50;72.54
20987;BME280;10652;50.306;8.570;2023-05-11T14:00:00;97733.63;;;15.33;74.43
20987;BME280;10652;50.306;8.570;2023-05-11T14:04:12;97730.78;;;15.23;76.45
20987;BME280;10652;50.306;8.570;2023-05-11T14:08:14;97732.69;;;15.09;75.94
20987;BME280;10652;50.306;8.570;2023-05-11T14:12:17;97728.91;;;14.87;75.91
20987;BME280;10652;50.306;8.570;2023-05-11T14:16:19;97726.34;;;14.86;78.29
20987;BME280;10652;50.306;8.570;2023-05-11T14:20:21;97718.75;;;14.94;79.53
20987;BME280;10652;50.306;8.570;2023-05-11T14:24:23;97724.16;;;14.93;78.09
20987;BME280;10652;50.306;8.570;2023-05-11T14:28:25;97724.25;;;14.91;80.60
20987;BME280;10652;50.306;8.570;2023-05-11T14:32:27;97722.03;;;14.98;81.84
20987;BME280;10652;50.306;8.570;2023-05-11T14:36:30;97724.44;;;15.26;83.48
20987;BME280;10652;50.306;8.570;2023-05-11T14:40:32;97715.38;;;15.41;80.47
20987;BME280;10652;50.306;8.570;2023-05-11T14:44:34;97719.41;;;15.47;80.17
20987;BME280;10652;50.306;8.570;2023-05-11T14:48:36;97711.94;;;15.64;79.53
20987;BME280;10652;50.306;8.570;2023-05-11T14:52:38;97712.81;;;15.65;78.21
20987;BME280;10652;50.306;8.570;2023-05-11T14:56:41;97708.59;;;15.62;79.28
20987;BME280;10652;50.306;8.570;2023-05-11T15:00:43;97713.69;;;15.40;80.43
20987;BME280;10652;50.306;8.570;2023-05-11T15:04:45;97709.22;;;15.17;82.82
20987;BME280;10652;50.306;8.570;2023-05-11T15:08:50;97719.78;;;15.17;84.68
20987;BME280;10652;50.306;8.570;2023-05-11T15:12:52;97708.47;;;15.02;83.30
20987;BME280;10652;50.306;8.570;2023-05-11T15:16:54;97716.97;;;14.69;84.98
20987;BME280;10652;50.306;8.570;2023-05-11T15:20:59;97720.22;;;14.60;86.26
20987;BME280;10652;50.306;8.570;2023-05-11T15:25:04;97712.81;;;14.53;88.27
20987;BME280;10652;50.306;8.570;2023-05-11T15:29:06;97717.44;;;14.49;87.80
20987;BME280;10652;50.306;8.570;2023-05-11T15:33:09;97715.09;;;14.44;89.26
20987;BME280;10652;50.306;8.570;2023-05-11T15:37:11;97720.81;;;14.38;89.34
20987;BME280;10652;50.306;8.570;2023-05-11T15:41:13;97710.13;;;14.40;91.45
20987;BME280;10652;50.306;8.570;2023-05-11T15:45:15;97720.19;;;14.35;89.89
20987;BME280;10652;50.306;8.570;2023-05-11T15:49:18;97703.47;;;14.34;90.21
20987;BME280;10652;50.306;8.570;2023-05-11T15:53:20;97721.00;;;14.35;89.24
20987;BME280;10652;50.306;8.570;2023-05-11T15:57:22;97716.88;;;14.19;85.94
20987;BME280;10652;50.306;8.570;2023-05-11T16:01:24;97720.97;;;14.10;87.56
20987;BME280;10652;50.306;8.570;2023-05-11T16:05:27;97714.59;;;14.00;86.48
20987;BME280;10652;50.306;8.570;2023-05-11T16:09:29;97717.53;;;13.95;87.21
20987;BME280;10652;50.306;8.570;2023-05-11T16:13:31;97719.03;;;13.99;87.09
20987;BME280;10652;50.306;8.570;2023-05-11T16:17:33;97714.72;;;13.98;88.28
20987;BME280;10652;50.306;8.570;2023-05-11T16:21:35;97712.59;;;14.03;88.89
20987;BME280;10652;50.306;8.570;2023-05-11T16:25:37;97701.59;;;13.97;88.63
20987;BME280;10652;50.306;8.570;2023-05-11T16:29:39;97710.44;;;13.83;88.81
20987;BME280;10652;50.306;8.570;2023-05-11T16:33:41;97706.00;;;13.84;89.59
20987;BME280;10652;50.306;8.570;2023-05-11T16:37:43;97709.00;;;13.65;89.90
20987;BME280;10652;50.306;8.570;2023-05-11T16:41:45;97698.81;;;13.45;92.63
20987;BME280;10652;50.306;8.570;2023-05-11T16:45:47;97705.81;;;13.32;93.80
20987;BME280;10652;50.306;8.570;2023-05-11T16:49:50;97702.97;;;13.08;94.38
20987;BME280;10652;50.306;8.570;2023-05-11T16:53:52;97702.69;;;12.98;95.68
20987;BME280;10652;50.306;8.570;2023-05-11T16:57:54;97699.84;;;12.87;96.85
20987;BME280;10652;50.306;8.570;2023-05-11T17:01:56;97702.59;;;12.72;98.06
20987;BME280;10652;50.306;8.570;2023-05-11T17:05:58;97713.41;;;12.81;98.49
20987;BME280;10652;50.306;8.570;2023-05-11T17:10:00;97710.03;;;12.79;98.83
20987;BME280;10652;50.306;8.570;2023-05-11T17:14:02;97713.88;;;12.88;99.12
20987;BME280;10652;50.306;8.570;2023-05-11T17:18:05;97710.19;;;12.90;98.09
20987;BME280;10652;50.306;8.570;2023-05-11T17:22:07;97710.31;;;12.89;98.19
20987;BME280;10652;50.306;8.570;2023-05-11T17:26:10;97715.09;;;12.96;99.06
20987;BME280;10652;50.306;8.570;2023-05-11T17:30:12;97706.47;;;12.94;98.49
20987;BME280;10652;50.306;8.570;2023-05-11T17:34:14;97718.88;;;12.92;97.92
20987;BME280;10652;50.306;8.570;2023-05-11T17:38:17;97718.03;;;12.92;97.25
20987;BME280;10652;50.306;8.570;2023-05-11T17:42:19;97722.66;;;12.88;96.23
20987;BME280;10652;50.306;8.570;2023-05-11T17:46:21;97717.09;;;12.79;96.13
20987;BME280;10652;50.306;8.570;2023-05-11T17:50:23;97720.19;;;12.71;97.11
20987;BME280;10652;50.306;8.570;2023-05-11T17:54:26;97734.50;;;12.67;97.87
20987;BME280;10652;50.306;8.570;2023-05-11T17:58:30;97724.91;;;12.66;97.83
20987;BME280;10652;50.306;8.570;2023-05-11T18:02:32;97724.41;;;12.59;98.13
20987;BME280;10652;50.306;8.570;2023-05-11T18:06:34;97720.94;;;12.59;99.96
20987;BME280;10652;50.306;8.570;2023-05-11T18:10:36;97719.59;;;12.52;100.00
20987;BME280;10652;50.306;8.570;2023-05-11T18:14:38;97725.53;;;12.55;100.00
20987;BME280;10652;50.306;8.570;2023-05-11T18:18:40;97724.88;;;12.52;100.00
20987;BME280;10652;50.306;8.570;2023-05-11T18:22:43;97730.16;;;12.52;100.00
20987;BME280;10652;50.306;8.570;2023-05-11T18:26:45;97729.66;;;12.45;100.00
20987;BME280;10652;50.306;8.570;2023-05-11T18:30:47;97735.03;;;12.44;100.00
20987;BME280;10652;50.306;8.570;2023-05-11T18:34:49;97736.31;;;12.37;100.00
20987;BME280;10652;50.306;8.570;2023-05-11T18:38:51;97726.94;;;12.31;100.00
20987;BME280;10652;50.306;8.570;2023-05-11T18:42:53;97735.03;;;12.28;100.00
20987;BME280;10652;50.306;8.570;2023-05-11T18:46:56;97731.22;;;12.34;100.00
20987;BME280;10652;50.306;8.570;2023-05-11T18:50:59;97734.97;;;12.30;100.00
20987;BME280;10652;50.306;8.570;2023-05-11T18:55:01;97732.50;;;12.26;100.00
20987;BME280;10652;50.306;8.570;2023-05-11T18:59:03;97740.22;;;12.30;100.00
20987;BME280;10652;50.306;8.570;2023-05-11T19:03:05;97738.22;;;12.19;100.00
20987;BME280;10652;50.306;8.570;2023-05-11T19:07:08;97748.09;;;12.15;100.00
20987;BME280;10652;50.306;8.570;2023-05-11T19:11:11;97749.94;;;12.13;100.00
20987;BME280;10652;50.306;8.570;2023-05-11T19:15:14;97751.84;;;12.11;100.00
20987;BME280;10652;50.306;8.570;2023-05-11T19:19:17;97751.19;;;12.08;100.00
20987;BME280;10652;50.306;8.570;2023-05-11T19:23:19;97752.84;;;12.09;100.00
20987;BME280;10652;50.306;8.570;2023-05-11T19:27:21;97760.94;;;12.06;100.00
20987;BME280;10652;50.306;8.570;2023-05-11T19:31:23;97761.13;;;12.03;100.00
20987;BME280;10652;50.306;8.570;2023-05-11T19:35:28;97753.38;;;12.00;100.00
20987;BME280;10652;50.306;8.570;2023-05-11T19:39:30;97764.03;;;11.98;100.00
20987;BME280;10652;50.306;8.570;2023-05-11T19:43:33;97764.94;;;11.97;100.00
20987;BME280;10652;50.306;8.570;2023-05-11T19:47:36;97758.75;;;11.98;100.00
20987;BME280;10652;50.306;8.570;2023-05-11T19:51:39;97757.22;;;11.94;100.00
20987;BME280;10652;50.306;8.570;2023-05-11T19:55:41;97755.69;;;11.90;100.00
20987;BME280;10652;50.306;8.570;2023-05-11T19:59:43;97761.66;;;11.94;100.00
20987;BME280;10652;50.306;8.570;2023-05-11T20:03:45;97763.44;;;11.93;100.00
20987;BME280;10652;50.306;8.570;2023-05-11T20:07:48;97760.63;;;11.96;100.00
20987;BME280;10652;50.306;8.570;2023-05-11T20:11:50;97764.75;;;12.00;100.00
20987;BME280;10652;50.306;8.570;2023-05-11T20:15:52;97769.19;;;12.00;100.00
20987;BME280;10652;50.306;8.570;2023-05-11T20:19:55;97769.03;;;12.03;100.00
20987;BME280;10652;50.306;8.570;2023-05-11T20:23:57;97771.53;;;12.04;100.00
20987;BME280;10652;50.306;8.570;2023-05-11T20:27:59;97766.47;;;12.01;100.00
20987;BME280;10652;50.306;8.570;2023-05-11T20:32:01;97768.16;;;12.02;100.00
20987;BME280;10652;50.306;8.570;2023-05-11T20:36:04;97768.16;;;12.02;100.00
20987;BME280;10652;50.306;8.570;2023-05-11T20:40:06;97769.50;;;12.09;100.00
20987;BME280;10652;50.306;8.570;2023-05-11T20:44:09;97760.94;;;12.06;100.00
20987;BME280;10652;50.306;8.570;2023-05-11T20:48:14;97766.00;;;12.09;100.00
20987;BME280;10652;50.306;8.570;2023-05-11T20:52:24;97760.94;;;12.06;100.00
20987;BME280;10652;50.306;8.570;2023-05-11T20:56:29;97759.34;;;12.03;100.00
20987;BME280;10652;50.306;8.570;2023-05-11T21:00:31;97757.03;;;11.97;100.00
20987;BME280;10652;50.306;8.570;2023-05-11T21:04:33;97751.38;;;11.89;100.00
20987;BME280;10652;50.306;8.570;2023-05-11T21:08:36;97743.22;;;11.78;100.00
20987;BME280;10652;50.306;8.570;2023-05-11T21:12:38;97745.13;;;11.76;100.00
20987;BME280;10652;50.306;8.570;2023-05-11T21:16:41;97741.53;;;11.77;100.00
20987;BME280;10652;50.306;8.570;2023-05-11T21:20:43;97734.94;;;11.70;100.00
20987;BME280;10652;50.306;8.570;2023-05-11T21:24:45;97732.47;;;11.67;100.00
20987;BME280;10652;50.306;8.570;2023-05-11T21:28:47;97731.88;;;11.62;100.00
20987;BME280;10652;50.306;8.570;2023-05-11T21:32:49;97727.88;;;11.55;100.00
20987;BME280;10652;50.306;8.570;2023-05-11T21:36:51;97729.78;;;11.53;100.00
20987;BME280;10652;50.306;8.570;2023-05-11T21:40:54;97727.28;;;11.50;100.00
20987;BME280;10652;50.306;8.570;2023-05-11T21:44:57;97722.88;;;11.50;100.00
20987;BME280;10652;50.306;8.570;2023-05-11T21:48:59;97725.44;;;11.52;100.00
20987;BME280;10652;50.306;8.570;2023-05-11T21:53:01;97727.13;;;11.53;100.00